Time;durP1;ratioP1;P1;durP2;ratioP2;P2;SDS_P1;SDS_P2;PMS_P1;PMS_P2;Temp;Humidity;BMP_temperature;BMP_pressure;BME280_temperature;BME280_humidity;BME280_pressure;Samples;Min_cycle;Max_cycle;Signal;HPM_P1;HPM_P2
2021/11/06 00:01:39;;;;;;;;;;;20.80;62.50;;;;;;5073818;28;1330;-67
2021/11/06 00:04:05;;;;;;;;;;;20.70;62.50;;;;;;5074180;28;1427;-67
2021/11/06 00:06:30;;;;;;;;;;;20.70;62.50;;;;;;5073953;28;1352;-67
2021/11/06 00:08:56;;;;;;;;;;;20.70;62.50;;;;;;5073579;28;1938;-67
2021/11/06 00:11:22;;;;;;;;;;;20.70;62.60;;;;;;5073589;28;1348;-67
2021/11/06 00:13:47;;;;;;;;;;;20.70;62.70;;;;;;5073942;28;1310;-67
2021/11/06 00:16:13;;;;;;;;;;;20.70;62.60;;;;;;5073850;28;1200;-67
2021/11/06 00:18:38;;;;;;;;;;;20.70;62.70;;;;;;5054678;28;1387;-67
2021/11/06 00:21:03;;;;;;;;;;;20.70;62.70;;;;;;5053418;28;1291;-67
2021/11/06 00:23:29;;;;;;;;;;;20.70;62.70;;;;;;5035675;28;1371;-67
2021/11/06 00:25:54;;;;;;;;;;;20.70;62.70;;;;;;5053735;28;1288;-67
2021/11/06 00:28:20;;;;;;;;;;;20.70;62.80;;;;;;5053481;28;1894;-67
2021/11/06 00:30:45;;;;;;;;;;;20.60;62.70;;;;;;5035451;28;1350;-67
2021/11/06 00:33:11;;;;;;;;;;;20.70;62.80;;;;;;5053419;28;1280;-67
2021/11/06 00:35:36;;;;;;;;;;;20.70;62.80;;;;;;5035678;28;1305;-67
2021/11/06 00:38:01;;;;;;;;;;;20.60;62.70;;;;;;5053235;28;1662;-67
2021/11/06 00:40:27;;;;;;;;;;;20.70;62.90;;;;;;5035542;28;1361;-67
2021/11/06 00:42:53;;;;;;;;;;;20.60;62.80;;;;;;5035116;28;1314;-67
2021/11/06 00:45:18;;;;;;;;;;;20.70;62.90;;;;;;5035569;28;1317;-67
2021/11/06 00:47:44;;;;;;;;;;;20.70;62.90;;;;;;5053030;28;1971;-67
2021/11/06 00:50:10;;;;;;;;;;;20.60;62.90;;;;;;5035400;28;1373;-67
2021/11/06 00:52:36;;;;;;;;;;;20.60;62.90;;;;;;5034985;28;1294;-67
2021/11/06 00:55:02;;;;;;;;;;;20.60;62.90;;;;;;5052806;28;1321;-67
2021/11/06 00:57:28;;;;;;;;;;;20.60;63.00;;;;;;5053082;28;1377;-67
2021/11/06 00:59:53;;;;;;;;;;;20.60;63.70;;;;;;5053001;28;1454;-67
2021/11/06 01:02:19;;;;;;;;;;;20.60;63.00;;;;;;5052645;28;1331;-67
2021/11/06 01:04:44;;;;;;;;;;;20.60;63.00;;;;;;5067624;28;1238;-67
2021/11/06 01:07:10;;;;;;;;;;;20.60;63.00;;;;;;5072618;28;1392;-67
2021/11/06 01:09:35;;;;;;;;;;;20.60;63.00;;;;;;5072871;28;1909;-67
2021/11/06 01:12:01;;;;;;;;;;;20.60;63.00;;;;;;5072687;28;1820;-67
2021/11/06 01:14:26;;;;;;;;;;;20.60;63.00;;;;;;5055047;28;1326;-67
2021/11/06 01:16:51;;;;;;;;;;;20.60;63.00;;;;;;5068009;28;1259;-67
2021/11/06 01:19:17;;;;;;;;;;;20.60;63.00;;;;;;5052930;28;1138;-67
2021/11/06 01:21:42;;;;;;;;;;;20.60;63.10;;;;;;5052182;28;1305;-67
2021/11/06 01:24:08;;;;;;;;;;;20.60;63.10;;;;;;5052485;28;1127;-67
2021/11/06 01:26:33;;;;;;;;;;;20.60;63.10;;;;;;5052670;28;1350;-67
2021/11/06 01:28:59;;;;;;;;;;;20.60;63.10;;;;;;5052692;28;1963;-67
2021/11/06 01:31:24;;;;;;;;;;;20.60;63.10;;;;;;5052252;28;1372;-67
2021/11/06 01:33:49;;;;;;;;;;;20.60;63.20;;;;;;5052763;28;1343;-67
2021/11/06 01:36:15;;;;;;;;;;;20.60;63.20;;;;;;5052432;28;1306;-67
2021/11/06 01:38:43;;;;;;;;;;;20.60;63.20;;;;;;5034638;28;1357;-67
2021/11/06 01:41:08;;;;;;;;;;;20.50;63.10;;;;;;5051997;28;1313;-67
2021/11/06 01:43:34;;;;;;;;;;;20.50;63.20;;;;;;5052636;28;1336;-67
2021/11/06 01:46:00;;;;;;;;;;;20.50;63.20;;;;;;5052580;28;1287;-67
2021/11/06 01:48:27;;;;;;;;;;;20.50;63.10;;;;;;5052579;28;1903;-67
2021/11/06 01:50:53;;;;;;;;;;;20.50;63.20;;;;;;5052267;28;1317;-67
2021/11/06 01:53:18;;;;;;;;;;;20.50;63.20;;;;;;5052290;28;1269;-68
2021/11/06 01:55:44;;;;;;;;;;;20.50;63.20;;;;;;5034831;28;1424;-68
2021/11/06 01:58:09;;;;;;;;;;;20.50;63.20;;;;;;5063568;28;1032;-68
2021/11/06 02:00:35;;;;;;;;;;;20.50;63.20;;;;;;5067446;28;1366;-67
2021/11/06 02:03:00;;;;;;;;;;;20.50;63.20;;;;;;5072190;28;1094;-68
2021/11/06 02:05:26;;;;;;;;;;;20.50;63.20;;;;;;5060269;28;1874;-67
2021/11/06 02:07:51;;;;;;;;;;;20.50;63.30;;;;;;5067062;28;1902;-67
2021/11/06 02:10:17;;;;;;;;;;;20.50;63.20;;;;;;5056292;28;1337;-69
2021/11/06 02:12:42;;;;;;;;;;;20.50;63.30;;;;;;5054122;28;1325;-67
2021/11/06 02:15:08;;;;;;;;;;;20.50;63.30;;;;;;5061827;28;1277;-67
2021/11/06 02:17:34;;;;;;;;;;;20.50;63.30;;;;;;5064559;28;1281;-68
2021/11/06 02:19:59;;;;;;;;;;;20.50;63.30;;;;;;5053716;28;1557;-68
2021/11/06 02:22:25;;;;;;;;;;;20.50;63.30;;;;;;5058633;28;1271;-68
2021/11/06 02:24:50;;;;;;;;;;;20.50;63.30;;;;;;5074320;28;1232;-67
2021/11/06 02:27:16;;;;;;;;;;;20.50;63.30;;;;;;5057189;28;1281;-67
2021/11/06 02:29:41;;;;;;;;;;;20.50;63.40;;;;;;5056982;28;1898;-68
2021/11/06 02:32:07;;;;;;;;;;;20.50;63.40;;;;;;5074330;28;1395;-67
2021/11/06 02:34:32;;;;;;;;;;;20.50;63.40;;;;;;5058630;28;1134;-68
2021/11/06 02:36:58;;;;;;;;;;;20.50;63.40;;;;;;5054471;28;1349;-68
2021/11/06 02:39:23;;;;;;;;;;;20.50;63.40;;;;;;5054985;28;1264;-68
2021/11/06 02:41:49;;;;;;;;;;;20.50;63.40;;;;;;5054373;28;1290;-67
2021/11/06 02:44:14;;;;;;;;;;;20.50;63.40;;;;;;5054565;28;1252;-69
2021/11/06 02:46:40;;;;;;;;;;;20.40;63.40;;;;;;5054792;28;1263;-68
2021/11/06 02:49:06;;;;;;;;;;;20.40;63.50;;;;;;5036621;28;1906;-67
2021/11/06 02:51:31;;;;;;;;;;;20.40;63.40;;;;;;5053585;28;1243;-68
2021/11/06 02:53:57;;;;;;;;;;;20.40;63.50;;;;;;5036572;28;1152;-69
2021/11/06 02:56:23;;;;;;;;;;;20.40;63.40;;;;;;5054398;28;1309;-68
2021/11/06 02:58:49;;;;;;;;;;;20.40;63.40;;;;;;5054474;28;1258;-68
2021/11/06 03:01:14;;;;;;;;;;;20.40;63.40;;;;;;5055031;28;1329;-68
2021/11/06 03:03:39;;;;;;;;;;;20.40;63.50;;;;;;5061729;28;1294;-68
2021/11/06 03:06:05;;;;;;;;;;;20.40;63.50;;;;;;5068342;28;2289;-68
2021/11/06 03:08:30;;;;;;;;;;;20.40;63.60;;;;;;5067516;28;1902;-68
2021/11/06 03:10:56;;;;;;;;;;;20.40;63.50;;;;;;5064319;28;1423;-68
2021/11/06 03:13:21;;;;;;;;;;;20.40;63.50;;;;;;5066639;28;1265;-68
2021/11/06 03:15:47;;;;;;;;;;;20.40;63.50;;;;;;5047414;28;1316;-68
2021/11/06 03:18:12;;;;;;;;;;;20.40;63.50;;;;;;5065384;28;1366;-66
2021/11/06 03:20:38;;;;;;;;;;;20.40;63.60;;;;;;5042813;28;1304;-66
2021/11/06 03:23:03;;;;;;;;;;;20.40;63.60;;;;;;5064874;28;1287;-67
2021/11/06 03:25:28;;;;;;;;;;;20.40;63.60;;;;;;5062688;28;1233;-67
2021/11/06 03:27:54;;;;;;;;;;;20.40;63.60;;;;;;5046203;28;1909;-69
2021/11/06 03:30:20;;;;;;;;;;;20.40;63.60;;;;;;5045820;28;1332;-70
2021/11/06 03:32:45;;;;;;;;;;;20.40;63.60;;;;;;5046508;28;1445;-69
2021/11/06 03:35:11;;;;;;;;;;;20.40;63.60;;;;;;5064892;28;1304;-69
2021/11/06 03:37:37;;;;;;;;;;;20.40;63.60;;;;;;5066558;28;1375;-69
2021/11/06 03:40:03;;;;;;;;;;;20.40;63.60;;;;;;5065740;28;1367;-69
2021/11/06 03:42:28;;;;;;;;;;;20.40;63.60;;;;;;5065801;28;1292;-68
2021/11/06 03:44:53;;;;;;;;;;;20.30;63.50;;;;;;5048015;28;1328;-68
2021/11/06 03:47:19;;;;;;;;;;;20.40;63.60;;;;;;5065730;28;1240;-67
2021/11/06 03:49:44;;;;;;;;;;;20.40;63.60;;;;;;5065318;28;1902;-67
2021/11/06 03:52:10;;;;;;;;;;;20.40;63.60;;;;;;5069512;28;1206;-68
2021/11/06 03:54:35;;;;;;;;;;;20.40;63.60;;;;;;5054304;28;1123;-68
2021/11/06 03:57:01;;;;;;;;;;;20.40;63.60;;;;;;5054593;28;1286;-67
2021/11/06 03:59:26;;;;;;;;;;;20.40;63.60;;;;;;5054198;28;1330;-67
2021/11/06 04:01:51;;;;;;;;;;;20.40;63.70;;;;;;5053869;28;1200;-68
2021/11/06 04:04:17;;;;;;;;;;;20.40;63.70;;;;;;5053997;28;1355;-68
2021/11/06 04:06:42;;;;;;;;;;;20.40;63.70;;;;;;5054239;28;1389;-68
2021/11/06 04:09:08;;;;;;;;;;;20.40;63.70;;;;;;5054205;28;1971;-68
2021/11/06 04:11:33;;;;;;;;;;;20.40;63.70;;;;;;5053655;28;1328;-68
2021/11/06 04:13:59;;;;;;;;;;;20.40;63.70;;;;;;5054202;28;1361;-68
2021/11/06 04:16:24;;;;;;;;;;;20.40;63.70;;;;;;5067312;28;1267;-68
2021/11/06 04:18:49;;;;;;;;;;;20.40;63.70;;;;;;5053899;28;1313;-68
2021/11/06 04:21:15;;;;;;;;;;;20.40;63.70;;;;;;5053170;28;1318;-67
2021/11/06 04:23:40;;;;;;;;;;;20.40;63.70;;;;;;5054005;28;1174;-69
2021/11/06 04:26:07;;;;;;;;;;;20.40;63.80;;;;;;5053717;28;1271;-69
2021/11/06 04:28:32;;;;;;;;;;;20.40;63.70;;;;;;5035902;28;1953;-69
2021/11/06 04:30:58;;;;;;;;;;;20.30;63.70;;;;;;5035576;28;1313;-68
2021/11/06 04:33:23;;;;;;;;;;;20.30;63.70;;;;;;5059919;28;1261;-68
2021/11/06 04:35:48;;;;;;;;;;;20.40;63.80;;;;;;5060098;28;1238;-68
2021/11/06 04:38:14;;;;;;;;;;;20.30;63.70;;;;;;5053770;28;1250;-68
2021/11/06 04:40:39;;;;;;;;;;;20.40;63.80;;;;;;5053352;28;1404;-68
2021/11/06 04:43:05;;;;;;;;;;;20.40;63.80;;;;;;5053140;28;1453;-68
2021/11/06 04:45:30;;;;;;;;;;;20.30;63.70;;;;;;5053418;28;1372;-68
2021/11/06 04:47:56;;;;;;;;;;;20.40;63.80;;;;;;5053204;28;1902;-67
2021/11/06 04:50:21;;;;;;;;;;;20.30;63.70;;;;;;5052916;28;1353;-68
2021/11/06 04:52:47;;;;;;;;;;;20.30;63.70;;;;;;5035085;28;1383;-68
2021/11/06 04:55:13;;;;;;;;;;;20.30;63.80;;;;;;5053316;28;1063;-68
2021/11/06 04:57:38;;;;;;;;;;;20.30;63.80;;;;;;5035374;28;1353;-67
2021/11/06 05:00:04;;;;;;;;;;;20.30;63.80;;;;;;5053148;28;1277;-67
2021/11/06 05:02:30;;;;;;;;;;;20.30;63.80;;;;;;5034843;28;1274;-67
2021/11/06 05:04:55;;;;;;;;;;;20.30;63.80;;;;;;5052957;28;1348;-67
2021/11/06 05:07:21;;;;;;;;;;;20.30;63.80;;;;;;5052732;28;1399;-68
2021/11/06 05:09:46;;;;;;;;;;;20.30;63.80;;;;;;5053110;28;1914;-69
2021/11/06 05:12:12;;;;;;;;;;;20.30;63.80;;;;;;5052454;28;1396;-69
2021/11/06 05:14:38;;;;;;;;;;;20.30;63.80;;;;;;5052891;28;1331;-69
2021/11/06 05:17:04;;;;;;;;;;;20.30;63.80;;;;;;5065951;28;1320;-68
2021/11/06 05:19:30;;;;;;;;;;;20.30;63.80;;;;;;5052612;28;1289;-68
2021/11/06 05:21:55;;;;;;;;;;;20.30;63.80;;;;;;5052118;28;1497;-67
2021/11/06 05:24:20;;;;;;;;;;;20.30;63.80;;;;;;5034899;28;1327;-67
2021/11/06 05:26:46;;;;;;;;;;;20.30;63.80;;;;;;5052747;28;1406;-67
2021/11/06 05:29:12;;;;;;;;;;;20.30;63.80;;;;;;5034890;28;1902;-68
2021/11/06 05:31:38;;;;;;;;;;;20.30;63.80;;;;;;5034523;28;1272;-68
2021/11/06 05:34:03;;;;;;;;;;;20.30;63.90;;;;;;5052568;28;1346;-68
2021/11/06 05:36:28;;;;;;;;;;;20.30;63.90;;;;;;5052365;28;1440;-67
2021/11/06 05:38:54;;;;;;;;;;;20.30;63.80;;;;;;5052686;28;1345;-67
2021/11/06 05:41:19;;;;;;;;;;;20.30;63.80;;;;;;5052031;28;1375;-67
2021/11/06 05:43:45;;;;;;;;;;;20.30;63.80;;;;;;5052048;28;1313;-67
2021/11/06 05:46:10;;;;;;;;;;;20.30;63.80;;;;;;5052551;28;1563;-67
2021/11/06 05:48:36;;;;;;;;;;;20.30;63.70;;;;;;5052217;28;1894;-67
2021/11/06 05:51:01;;;;;;;;;;;20.30;63.70;;;;;;5051819;28;1602;-67
2021/11/06 05:53:27;;;;;;;;;;;20.40;63.70;;;;;;5034990;28;1314;-68
2021/11/06 05:55:52;;;;;;;;;;;20.30;63.60;;;;;;5052421;28;1396;-68
2021/11/06 05:58:18;;;;;;;;;;;20.40;63.60;;;;;;5052524;28;1246;-67
2021/11/06 06:00:43;;;;;;;;;;;20.40;63.50;;;;;;5052510;28;1355;-67
2021/11/06 06:03:08;;;;;;;;;;;20.40;63.50;;;;;;5051902;28;1283;-68
2021/11/06 06:05:34;;;;;;;;;;;20.40;63.40;;;;;;5070940;28;1123;-67
2021/11/06 06:07:59;;;;;;;;;;;20.40;63.40;;;;;;5072424;28;1914;-68
2021/11/06 06:10:25;;;;;;;;;;;20.40;63.40;;;;;;5053597;28;1310;-68
2021/11/06 06:12:51;;;;;;;;;;;20.40;63.30;;;;;;5052227;28;1075;-68
2021/11/06 06:15:17;;;;;;;;;;;20.40;63.20;;;;;;5057179;28;1343;-68
2021/11/06 06:17:42;;;;;;;;;;;20.50;63.20;;;;;;5073836;28;1326;-68
2021/11/06 06:20:08;;;;;;;;;;;20.50;63.20;;;;;;5069415;28;1371;-68
2021/11/06 06:22:33;;;;;;;;;;;20.50;63.10;;;;;;5063509;28;1294;-67
2021/11/06 06:24:59;;;;;;;;;;;20.50;63.10;;;;;;5072278;28;1335;-68
2021/11/06 06:27:24;;;;;;;;;;;20.50;63.00;;;;;;5054342;28;1383;-68
2021/11/06 06:29:50;;;;;;;;;;;20.50;63.00;;;;;;5072073;28;1898;-68
2021/11/06 06:32:15;;;;;;;;;;;20.50;63.00;;;;;;5071383;28;1360;-67
2021/11/06 06:34:41;;;;;;;;;;;20.50;63.00;;;;;;5054228;28;1311;-67
2021/11/06 06:37:06;;;;;;;;;;;20.50;62.90;;;;;;5072116;28;1254;-68
2021/11/06 06:39:32;;;;;;;;;;;20.50;62.90;;;;;;5072017;28;1281;-68
2021/11/06 06:41:57;;;;;;;;;;;20.50;62.90;;;;;;5053638;28;1369;-68
2021/11/06 06:44:22;;;;;;;;;;;20.60;62.90;;;;;;5071954;28;1290;-68
2021/11/06 06:46:48;;;;;;;;;;;20.60;62.90;;;;;;5053909;28;1268;-69
2021/11/06 06:49:14;;;;;;;;;;;20.60;62.90;;;;;;5071885;28;1964;-68
2021/11/06 06:51:39;;;;;;;;;;;20.60;62.90;;;;;;5071404;28;1316;-68
2021/11/06 06:54:04;;;;;;;;;;;20.60;62.90;;;;;;5054173;28;1316;-68
2021/11/06 06:56:31;;;;;;;;;;;20.60;62.80;;;;;;5057313;28;1294;-68
2021/11/06 06:58:56;;;;;;;;;;;20.60;62.80;;;;;;5074909;28;1531;-68
2021/11/06 07:01:21;;;;;;;;;;;20.60;62.80;;;;;;5074558;28;1294;-68
2021/11/06 07:03:47;;;;;;;;;;;20.60;62.80;;;;;;5075271;28;1335;-68
2021/11/06 07:06:12;;;;;;;;;;;20.60;62.70;;;;;;5075348;28;1320;-68
2021/11/06 07:08:38;;;;;;;;;;;20.60;62.80;;;;;;5075215;28;1894;-67
2021/11/06 07:11:03;;;;;;;;;;;20.60;62.70;;;;;;5075235;28;1308;-66
2021/11/06 07:13:29;;;;;;;;;;;20.60;62.10;;;;;;5075244;28;1317;-68
2021/11/06 07:15:55;;;;;;;;;;;20.60;62.40;;;;;;5074894;28;1220;-68
2021/11/06 07:18:20;;;;;;;;;;;20.60;61.80;;;;;;5058115;28;1410;-68
2021/11/06 07:20:46;;;;;;;;;;;20.60;61.20;;;;;;5054519;28;1302;-68
2021/11/06 07:23:11;;;;;;;;;;;20.60;61.10;;;;;;5035436;28;1659;-70
2021/11/06 07:25:37;;;;;;;;;;;20.60;61.10;;;;;;5068476;28;1845;-68
2021/11/06 07:28:03;;;;;;;;;;;20.60;61.10;;;;;;5069495;28;1910;-68
2021/11/06 07:30:28;;;;;;;;;;;20.60;61.20;;;;;;5068047;28;1300;-68
2021/11/06 07:32:54;;;;;;;;;;;20.60;61.40;;;;;;5057881;28;1222;-71
2021/11/06 07:35:19;;;;;;;;;;;20.60;61.50;;;;;;5054664;28;1262;-70
2021/11/06 07:37:45;;;;;;;;;;;20.60;61.60;;;;;;5036560;28;1079;-69
2021/11/06 07:40:12;;;;;;;;;;;20.60;61.60;;;;;;5054590;28;1357;-70
2021/11/06 07:42:37;;;;;;;;;;;20.70;61.70;;;;;;5054633;28;1187;-70
2021/11/06 07:45:03;;;;;;;;;;;20.60;61.60;;;;;;5054410;28;1310;-71
2021/11/06 07:47:28;;;;;;;;;;;20.70;61.60;;;;;;5054249;28;1096;-71
2021/11/06 07:49:54;;;;;;;;;;;20.80;61.60;;;;;;5054014;28;1894;-70
2021/11/06 07:52:20;;;;;;;;;;;20.80;61.50;;;;;;5058070;23;3787;-69
2021/11/06 07:54:45;;;;;;;;;;;20.90;61.30;;;;;;5028575;28;1495;-68
2021/11/06 07:57:10;;;;;;;;;;;20.90;61.20;;;;;;5045134;28;1361;-69
2021/11/06 07:59:36;;;;;;;;;;;21.00;61.10;;;;;;5009106;28;1190;-69
2021/11/06 08:02:01;;;;;;;;;;;21.10;60.90;;;;;;5045833;28;1527;-69
2021/11/06 08:04:27;;;;;;;;;;;21.10;60.80;;;;;;5053882;28;1766;-69
2021/11/06 08:06:52;;;;;;;;;;;21.10;60.70;;;;;;5048440;28;1396;-69
2021/11/06 08:09:18;;;;;;;;;;;21.20;60.50;;;;;;5053563;28;1902;-68
2021/11/06 08:11:43;;;;;;;;;;;21.20;60.30;;;;;;5048635;28;1716;-67
2021/11/06 08:14:09;;;;;;;;;;;21.30;60.30;;;;;;5053748;28;1348;-67
2021/11/06 08:16:34;;;;;;;;;;;21.30;60.20;;;;;;5053780;28;1493;-67
2021/11/06 08:19:00;;;;;;;;;;;21.40;60.10;;;;;;5053594;28;1330;-67
2021/11/06 08:21:25;;;;;;;;;;;21.40;60.00;;;;;;5063875;28;1375;-67
2021/11/06 08:23:50;;;;;;;;;;;21.40;59.90;;;;;;5053951;28;1040;-68
2021/11/06 08:26:16;;;;;;;;;;;21.50;59.90;;;;;;5061853;28;2175;-68
2021/11/06 08:28:41;;;;;;;;;;;21.50;59.80;;;;;;5072242;28;1898;-69
2021/11/06 08:31:07;;;;;;;;;;;21.50;59.70;;;;;;5067912;28;1436;-68
2021/11/06 08:33:33;;;;;;;;;;;21.50;59.70;;;;;;5053651;28;1475;-68
2021/11/06 08:35:59;;;;;;;;;;;21.60;59.70;;;;;;5052863;28;1611;-68
2021/11/06 08:38:25;;;;;;;;;;;21.60;59.70;;;;;;5053351;28;1408;-67
2021/11/06 08:40:50;;;;;;;;;;;21.60;59.60;;;;;;5047460;28;1487;-68
2021/11/06 08:43:16;;;;;;;;;;;21.60;59.60;;;;;;5044175;28;1690;-67
2021/11/06 08:45:42;;;;;;;;;;;21.60;59.60;;;;;;5057603;28;1393;-68
2021/11/06 08:48:08;;;;;;;;;;;21.60;59.50;;;;;;5053315;28;1973;-68
2021/11/06 08:50:33;;;;;;;;;;;21.60;59.50;;;;;;5052694;28;1440;-69
2021/11/06 08:52:59;;;;;;;;;;;21.70;59.50;;;;;;5051943;28;1404;-69
2021/11/06 08:55:25;;;;;;;;;;;21.70;59.50;;;;;;5052741;28;1427;-69
2021/11/06 08:57:50;;;;;;;;;;;21.70;59.50;;;;;;5053036;28;1671;-69
2021/11/06 09:00:33;;;;;;;;;;;21.70;59.50;;;;;;5048341;28;1595;-69
2021/11/06 09:02:59;;;;;;;;;;;21.70;59.50;;;;;;5051954;28;1266;-69
2021/11/06 09:05:24;;;;;;;;;;;21.70;59.40;;;;;;5052263;28;1659;-69
2021/11/06 09:07:50;;;;;;;;;;;21.80;59.40;;;;;;5053008;28;1600;-69
2021/11/06 09:10:16;;;;;;;;;;;21.80;59.40;;;;;;5052702;28;1903;-68
2021/11/06 09:12:41;;;;;;;;;;;21.70;59.40;;;;;;5051350;28;1591;-70
2021/11/06 09:15:07;;;;;;;;;;;21.80;59.40;;;;;;5052662;28;1673;-70
2021/11/06 09:17:32;;;;;;;;;;;21.80;59.40;;;;;;5052751;28;1635;-70
2021/11/06 09:19:58;;;;;;;;;;;21.80;59.40;;;;;;5053120;28;1570;-70
2021/11/06 09:22:24;;;;;;;;;;;21.80;59.40;;;;;;5061933;28;1682;-70
2021/11/06 09:24:50;;;;;;;;;;;21.80;59.40;;;;;;5052621;28;1461;-70
2021/11/06 09:27:16;;;;;;;;;;;21.80;59.30;;;;;;5052116;28;1372;-70
2021/11/06 09:29:42;;;;;;;;;;;21.80;59.30;;;;;;5048252;28;1897;-70
2021/11/06 09:32:11;;;;;;;;;;;21.80;59.30;;;;;;5043436;28;1446;-70
2021/11/06 09:34:37;;;;;;;;;;;21.80;59.30;;;;;;5054914;28;1664;-70
2021/11/06 09:37:02;;;;;;;;;;;21.80;59.30;;;;;;5052546;28;1680;-70
2021/11/06 09:39:28;;;;;;;;;;;21.80;59.30;;;;;;5052362;28;1572;-70
2021/11/06 09:41:53;;;;;;;;;;;21.80;59.30;;;;;;5043540;28;1806;-71
2021/11/06 09:44:19;;;;;;;;;;;21.80;59.30;;;;;;5055430;28;1321;-70
2021/11/06 09:46:44;;;;;;;;;;;21.80;59.30;;;;;;5052156;28;1669;-69
2021/11/06 09:49:10;;;;;;;;;;;21.80;59.30;;;;;;5052036;28;1926;-67
2021/11/06 09:51:35;;;;;;;;;;;21.90;59.30;;;;;;5043204;28;1670;-68
2021/11/06 09:54:02;;;;;;;;;;;21.90;59.30;;;;;;5055770;28;1423;-68
2021/11/06 09:56:27;;;;;;;;;;;21.90;59.30;;;;;;5043734;28;1611;-70
2021/11/06 09:58:54;;;;;;;;;;;21.90;59.30;;;;;;5056123;28;1696;-69
2021/11/06 10:01:20;;;;;;;;;;;21.90;59.30;;;;;;5043824;28;1341;-70
2021/11/06 10:03:46;;;;;;;;;;;21.90;59.30;;;;;;5051104;28;1672;-69
2021/11/06 10:06:18;;;;;;;;;;;21.90;59.30;;;;;;5043800;28;1357;-69
2021/11/06 10:08:43;;;;;;;;;;;21.90;59.20;;;;;;5054157;28;1906;-67
2021/11/06 10:11:10;;;;;;;;;;;22.00;59.20;;;;;;5043596;28;1350;-69
2021/11/06 10:13:55;;;;;;;;;;;22.00;59.20;;;;;;5054113;28;1392;-69
2021/11/06 10:16:24;;;;;;;;;;;22.00;59.10;;;;;;5041190;28;1583;-69
2021/11/06 10:18:50;;;;;;;;;;;22.10;59.10;;;;;;5046241;28;1679;-67
2021/11/06 10:21:15;;;;;;;;;;;22.10;59.10;;;;;;5044407;28;1306;-68
2021/11/06 10:23:41;;;;;;;;;;;22.10;59.00;;;;;;5051730;28;1614;-68
2021/11/06 10:26:14;;;;;;;;;;;22.10;59.00;;;;;;5047628;28;1732;-69
2021/11/06 10:28:39;;;;;;;;;;;22.20;58.90;;;;;;5051848;28;1903;-68
2021/11/06 10:31:05;;;;;;;;;;;22.20;58.90;;;;;;5049183;28;1547;-69
2021/11/06 10:33:31;;;;;;;;;;;22.20;59.40;;;;;;5055577;28;1355;-71
2021/11/06 10:36:04;;;;;;;;;;;22.20;58.80;;;;;;5038053;28;2125;-71
2021/11/06 10:38:30;;;;;;;;;;;22.20;58.80;;;;;;5047576;28;1308;-71
2021/11/06 10:40:56;;;;;;;;;;;22.30;58.70;;;;;;5057741;28;1467;-70
2021/11/06 10:43:23;;;;;;;;;;;22.30;58.70;;;;;;5045379;28;1127;-69
2021/11/06 10:45:49;;;;;;;;;;;22.30;58.60;;;;;;5046989;28;1200;-68
2021/11/06 10:48:18;;;;;;;;;;;22.30;58.60;;;;;;5062949;28;1902;-69
2021/11/06 10:50:44;;;;;;;;;;;22.30;58.60;;;;;;5061692;28;1371;-68
2021/11/06 10:53:10;;;;;;;;;;;22.30;58.60;;;;;;5062290;28;1358;-69
2021/11/06 10:55:39;;;;;;;;;;;22.30;58.50;;;;;;5059622;28;1350;-69
2021/11/06 10:58:18;;;;;;;;;;;22.30;58.50;;;;;;5046604;28;1426;-69
2021/11/06 11:00:53;;;;;;;;;;;22.40;58.60;;;;;;5046207;28;1407;-70
2021/11/06 11:03:26;;;;;;;;;;;22.40;58.50;;;;;;5062795;28;1164;-69
2021/11/06 11:05:52;;;;;;;;;;;22.40;58.50;;;;;;5040152;28;2093;-71
2021/11/06 11:08:17;;;;;;;;;;;22.40;58.50;;;;;;5062345;28;1949;-69
2021/11/06 11:10:43;;;;;;;;;;;22.40;58.50;;;;;;5046885;28;1307;-70
2021/11/06 11:13:13;;;;;;;;;;;22.40;58.50;;;;;;5058586;28;1476;-69
2021/11/06 11:15:39;;;;;;;;;;;22.40;58.50;;;;;;5059425;28;1412;-69
2021/11/06 11:18:04;;;;;;;;;;;22.40;58.50;;;;;;5056465;28;1282;-69
2021/11/06 11:20:31;;;;;;;;;;;22.40;58.50;;;;;;5063933;28;1456;-68
2021/11/06 11:23:06;;;;;;;;;;;22.40;58.50;;;;;;5061727;28;1243;-68
2021/11/06 11:25:32;;;;;;;;;;;22.40;58.50;;;;;;5048742;28;1408;-67
2021/11/06 11:27:57;;;;;;;;;;;22.40;59.00;;;;;;5066387;28;1365;-68
2021/11/06 11:30:23;;;;;;;;;;;22.40;58.40;;;;;;5064553;28;1965;-69
2021/11/06 11:32:48;;;;;;;;;;;22.40;58.40;;;;;;5066433;28;1386;-69
2021/11/06 11:35:14;;;;;;;;;;;22.40;58.40;;;;;;5064061;28;1151;-71
2021/11/06 11:37:39;;;;;;;;;;;22.40;58.50;;;;;;5062659;28;1308;-68
2021/11/06 11:40:05;;;;;;;;;;;22.40;58.40;;;;;;5050159;28;1278;-70
2021/11/06 11:42:36;;;;;;;;;;;22.50;58.40;;;;;;5048779;28;1576;-71
2021/11/06 11:45:06;;;;;;;;;;;22.40;58.40;;;;;;5054288;28;1562;-70
2021/11/06 11:47:42;;;;;;;;;;;22.50;58.40;;;;;;5053771;28;1702;-71
2021/11/06 11:50:11;;;;;;;;;;;22.50;58.40;;;;;;5056328;28;1938;-71
2021/11/06 11:52:37;;;;;;;;;;;22.50;58.40;;;;;;5055522;28;1401;-71
2021/11/06 11:55:07;;;;;;;;;;;22.50;58.40;;;;;;5056510;28;1387;-70
2021/11/06 11:57:39;;;;;;;;;;;22.50;58.40;;;;;;5054212;28;1687;-71
2021/11/06 12:00:17;;;;;;;;;;;22.50;58.40;;;;;;5049511;28;1349;-71
2021/11/06 12:02:51;;;;;;;;;;;22.50;58.40;;;;;;5053358;28;1455;-70
2021/11/06 12:05:18;;;;;;;;;;;22.50;58.40;;;;;;5054051;28;1639;-71
2021/11/06 12:07:46;;;;;;;;;;;22.50;58.30;;;;;;5053669;28;1183;-71
2021/11/06 12:10:24;;;;;;;;;;;22.50;58.30;;;;;;5053275;28;1973;-70
2021/11/06 12:12:50;;;;;;;;;;;22.50;58.30;;;;;;5060997;28;1310;-71
2021/11/06 12:15:15;;;;;;;;;;;22.50;58.30;;;;;;5036020;28;1505;-70
2021/11/06 12:17:41;;;;;;;;;;;22.50;58.30;;;;;;5053872;28;1161;-71
2021/11/06 12:20:23;;;;;;;;;;;22.50;58.30;;;;;;5053704;28;1481;-71
2021/11/06 12:22:49;;;;;;;;;;;22.50;58.30;;;;;;5041119;28;1551;-71
2021/11/06 12:25:14;;;;;;;;;;;22.50;58.30;;;;;;5073642;28;1607;-71
2021/11/06 12:27:50;;;;;;;;;;;22.50;58.30;;;;;;5073441;28;1367;-71
2021/11/06 12:30:26;;;;;;;;;;;22.50;58.30;;;;;;5073412;28;1965;-71
2021/11/06 12:32:51;;;;;;;;;;;22.50;58.30;;;;;;5072135;28;1653;-71
2021/11/06 12:35:35;;;;;;;;;;;22.50;58.30;;;;;;5045751;28;1635;-71
2021/11/06 12:38:01;;;;;;;;;;;22.50;58.40;;;;;;5072143;28;1590;-71
2021/11/06 12:40:31;;;;;;;;;;;22.50;58.40;;;;;;5073402;28;1660;-71
2021/11/06 12:43:07;;;;;;;;;;;22.50;58.40;;;;;;5072039;28;1431;-72
2021/11/06 12:45:33;;;;;;;;;;;22.50;58.40;;;;;;5041977;28;1807;-71
2021/11/06 12:48:06;;;;;;;;;;;22.50;58.40;;;;;;5072939;28;1608;-71
2021/11/06 12:50:31;;;;;;;;;;;22.50;58.40;;;;;;5072468;28;1505;-71
2021/11/06 12:52:57;;;;;;;;;;;22.50;58.50;;;;;;5072147;28;1644;-72
2021/11/06 12:55:22;;;;;;;;;;;22.50;58.50;;;;;;5073268;28;1439;-72
2021/11/06 12:57:48;;;;;;;;;;;22.50;58.50;;;;;;5069282;28;2120;-71
2021/11/06 13:00:14;;;;;;;;;;;22.50;58.50;;;;;;5071348;28;1420;-72
2021/11/06 13:02:44;;;;;;;;;;;22.50;58.50;;;;;;5050426;28;1383;-71
2021/11/06 13:05:09;;;;;;;;;;;22.50;58.50;;;;;;5051918;28;1634;-71
2021/11/06 13:07:34;;;;;;;;;;;22.50;58.50;;;;;;5062833;28;1384;-71
2021/11/06 13:10:00;;;;;;;;;;;22.50;58.50;;;;;;5063575;28;1901;-71
2021/11/06 13:12:25;;;;;;;;;;;22.50;58.50;;;;;;5066394;28;1646;-71
2021/11/06 13:15:00;;;;;;;;;;;22.50;58.50;;;;;;5057870;28;1664;-71
2021/11/06 13:17:26;;;;;;;;;;;22.50;58.60;;;;;;5052540;28;1347;-71
2021/11/06 13:20:06;;;;;;;;;;;22.50;58.50;;;;;;5053438;28;1613;-71
2021/11/06 13:22:31;;;;;;;;;;;22.50;58.60;;;;;;5042999;28;1679;-71
2021/11/06 13:24:58;;;;;;;;;;;22.40;58.60;;;;;;5069933;28;1596;-71
2021/11/06 13:27:40;;;;;;;;;;;22.40;58.60;;;;;;5043835;28;1593;-71
2021/11/06 13:30:16;;;;;;;;;;;22.40;58.80;;;;;;5065945;28;1963;-71
2021/11/06 13:32:54;;;;;;;;;;;22.40;58.80;;;;;;5046931;28;1606;-71
2021/11/06 13:35:20;;;;;;;;;;;22.40;58.90;;;;;;5052353;28;1364;-71
2021/11/06 13:37:46;;;;;;;;;;;22.30;58.90;;;;;;5047972;28;1554;-71
2021/11/06 13:40:12;;;;;;;;;;;22.30;58.60;;;;;;5027277;28;1319;-71
2021/11/06 13:42:37;;;;;;;;;;;22.30;58.10;;;;;;5040308;28;1274;-71
2021/11/06 13:45:09;;;;;;;;;;;22.20;57.30;;;;;;5072557;28;1723;-71
2021/11/06 13:47:44;;;;;;;;;;;22.20;57.20;;;;;;5040323;28;1356;-71
2021/11/06 13:50:10;;;;;;;;;;;22.10;56.40;;;;;;5043547;28;1898;-71
2021/11/06 13:52:36;;;;;;;;;;;22.10;56.10;;;;;;5070480;22;2132;-67
2021/11/06 13:55:02;;;;;;;;;;;22.00;55.70;;;;;;5024380;28;1207;-67
2021/11/06 13:57:30;;;;;;;;;;;22.00;55.60;;;;;;5015022;28;1508;-67
2021/11/06 14:00:00;;;;;;;;;;;21.90;55.10;;;;;;5032789;28;1696;-68
2021/11/06 14:02:28;;;;;;;;;;;21.90;55.30;;;;;;5042845;28;1725;-70
2021/11/06 14:05:00;;;;;;;;;;;21.90;55.10;;;;;;5053668;28;1408;-70
2021/11/06 14:07:27;;;;;;;;;;;21.90;55.50;;;;;;5048264;28;2829;-70
2021/11/06 14:09:58;;;;;;;;;;;21.90;55.70;;;;;;5056078;28;1914;-67
2021/11/06 14:12:32;;;;;;;;;;;21.90;55.90;;;;;;5038027;28;1674;-72
2021/11/06 14:14:58;;;;;;;;;;;21.90;56.20;;;;;;5056200;28;1391;-70
2021/11/06 14:17:24;;;;;;;;;;;21.80;56.30;;;;;;5038054;28;1698;-72
2021/11/06 14:19:53;;;;;;;;;;;21.80;56.40;;;;;;5031699;28;1180;-68
2021/11/06 14:22:38;;;;;;;;;;;21.80;56.50;;;;;;5052319;28;1286;-70
2021/11/06 14:25:04;;;;;;;;;;;21.80;56.70;;;;;;5052714;28;1052;-70
2021/11/06 14:27:29;;;;;;;;;;;21.80;56.80;;;;;;5034967;28;1259;-70